sensor_id;sensor_type;location;lat;lon;timestamp;P1;durP1;ratioP1;P2;durP2;ratioP2
12768;SDS011;6448;48.916;8.990;2022-09-12T00:00:26;3.00;;;2.80;;
12768;SDS011;6448;48.916;8.990;2022-09-12T00:01:27;3.20;;;2.95;;
12768;SDS011;6448;48.916;8.990;2022-09-12T00:02:29;3.22;;;3.03;;
12768;SDS011;6448;48.916;8.990;2022-09-12T00:03:31;3.13;;;2.93;;
12768;SDS011;6448;48.916;8.990;2022-09-12T00:04:32;3.00;;;2.80;;
12768;SDS011;6448;48.916;8.990;2022-09-12T00:05:33;3.10;;;2.90;;
12768;SDS011;6448;48.916;8.990;2022-09-12T00:06:35;3.15;;;2.95;;
12768;SDS011;6448;48.916;8.990;2022-09-12T00:07:36;3.00;;;2.80;;
12768;SDS011;6448;48.916;8.990;2022-09-12T00:08:38;3.00;;;2.80;;
12768;SDS011;6448;48.916;8.990;2022-09-12T00:09:39;3.10;;;2.80;;
12768;SDS011;6448;48.916;8.990;2022-09-12T00:10:41;2.90;;;2.70;;
12768;SDS011;6448;48.916;8.990;2022-09-12T00:11:44;2.92;;;2.72;;
12768;SDS011;6448;48.916;8.990;2022-09-12T00:12:47;2.92;;;2.72;;
12768;SDS011;6448;48.916;8.990;2022-09-12T00:13:48;2.97;;;2.78;;
12768;SDS011;6448;48.916;8.990;2022-09-12T00:14:50;3.10;;;2.90;;
12768;SDS011;6448;48.916;8.990;2022-09-12T00:15:50;3.10;;;2.90;;
12768;SDS011;6448;48.916;8.990;2022-09-12T00:16:52;3.17;;;2.97;;
12768;SDS011;6448;48.916;8.990;2022-09-12T00:17:56;3.20;;;3.00;;
12768;SDS011;6448;48.916;8.990;2022-09-12T00:19:00;3.15;;;2.95;;
12768;SDS011;6448;48.916;8.990;2022-09-12T00:20:01;3.03;;;2.83;;
12768;SDS011;6448;48.916;8.990;2022-09-12T00:21:04;3.33;;;3.13;;
12768;SDS011;6448;48.916;8.990;2022-09-12T00:22:05;3.20;;;3.00;;
12768;SDS011;6448;48.916;8.990;2022-09-12T00:23:07;3.13;;;2.93;;
12768;SDS011;6448;48.916;8.990;2022-09-12T00:24:08;3.10;;;2.90;;
12768;SDS011;6448;48.916;8.990;2022-09-12T00:25:10;2.90;;;2.70;;
12768;SDS011;6448;48.916;8.990;2022-09-12T00:26:11;3.20;;;2.90;;
12768;SDS011;6448;48.916;8.990;2022-09-12T00:27:14;3.20;;;3.00;;
12768;SDS011;6448;48.916;8.990;2022-09-12T00:28:15;3.25;;;3.05;;
12768;SDS011;6448;48.916;8.990;2022-09-12T00:29:19;3.40;;;3.10;;
12768;SDS011;6448;48.916;8.990;2022-09-12T00:30:21;3.20;;;3.00;;
12768;SDS011;6448;48.916;8.990;2022-09-12T00:31:24;3.40;;;3.10;;
12768;SDS011;6448;48.916;8.990;2022-09-12T00:32:25;3.33;;;3.10;;
12768;SDS011;6448;48.916;8.990;2022-09-12T00:33:27;3.30;;;3.10;;
12768;SDS011;6448;48.916;8.990;2022-09-12T00:34:29;3.40;;;3.20;;
12768;SDS011;6448;48.916;8.990;2022-09-12T00:35:31;3.60;;;3.30;;
12768;SDS011;6448;48.916;8.990;2022-09-12T00:36:32;3.33;;;3.13;;
12768;SDS011;6448;48.916;8.990;2022-09-12T00:37:33;3.40;;;3.20;;
12768;SDS011;6448;48.916;8.990;2022-09-12T00:38:34;3.60;;;3.30;;
12768;SDS011;6448;48.916;8.990;2022-09-12T00:39:37;3.33;;;3.13;;
12768;SDS011;6448;48.916;8.990;2022-09-12T00:40:38;3.80;;;3.50;;
12768;SDS011;6448;48.916;8.990;2022-09-12T00:41:40;3.95;;;3.65;;
12768;SDS011;6448;48.916;8.990;2022-09-12T00:42:42;3.90;;;3.60;;
12768;SDS011;6448;48.916;8.990;2022-09-12T00:43:44;3.70;;;3.50;;
12768;SDS011;6448;48.916;8.990;2022-09-12T00:44:48;3.47;;;3.28;;
12768;SDS011;6448;48.916;8.990;2022-09-12T00:45:49;3.83;;;3.53;;
12768;SDS011;6448;48.916;8.990;2022-09-12T00:46:51;3.63;;;3.42;;
12768;SDS011;6448;48.916;8.990;2022-09-12T00:47:57;3.40;;;3.17;;
12768;SDS011;6448;48.916;8.990;2022-09-12T00:49:02;3.72;;;3.53;;
12768;SDS011;6448;48.916;8.990;2022-09-12T00:50:08;3.60;;;3.30;;
12768;SDS011;6448;48.916;8.990;2022-09-12T00:51:13;3.45;;;3.25;;
12768;SDS011;6448;48.916;8.990;2022-09-12T00:52:15;3.50;;;3.30;;
12768;SDS011;6448;48.916;8.990;2022-09-12T00:53:21;3.65;;;3.45;;
12768;SDS011;6448;48.916;8.990;2022-09-12T00:54:22;3.60;;;3.40;;
12768;SDS011;6448;48.916;8.990;2022-09-12T00:55:27;3.60;;;3.30;;
12768;SDS011;6448;48.916;8.990;2022-09-12T00:56:34;3.70;;;3.50;;
12768;SDS011;6448;48.916;8.990;2022-09-12T00:57:39;3.55;;;3.35;;
12768;SDS011;6448;48.916;8.990;2022-09-12T00:58:45;3.50;;;3.30;;
12768;SDS011;6448;48.916;8.990;2022-09-12T00:59:52;3.55;;;3.33;;
12768;SDS011;6448;48.916;8.990;2022-09-12T01:00:57;3.70;;;3.45;;
12768;SDS011;6448;48.916;8.990;2022-09-12T01:01:59;3.55;;;3.35;;
12768;SDS011;6448;48.916;8.990;2022-09-12T01:03:01;4.07;;;3.80;;
12768;SDS011;6448;48.916;8.990;2022-09-12T01:04:05;3.83;;;3.55;;
12768;SDS011;6448;48.916;8.990;2022-09-12T01:05:08;3.80;;;3.50;;
12768;SDS011;6448;48.916;8.990;2022-09-12T01:06:13;3.80;;;3.50;;
12768;SDS011;6448;48.916;8.990;2022-09-12T01:07:17;3.92;;;3.63;;
12768;SDS011;6448;48.916;8.990;2022-09-12T01:08:20;3.30;;;3.10;;
12768;SDS011;6448;48.916;8.990;2022-09-12T01:09:22;4.05;;;3.75;;
12768;SDS011;6448;48.916;8.990;2022-09-12T01:10:24;3.78;;;3.47;;
12768;SDS011;6448;48.916;8.990;2022-09-12T01:11:25;4.28;;;3.70;;
12768;SDS011;6448;48.916;8.990;2022-09-12T01:12:27;3.97;;;3.67;;
12768;SDS011;6448;48.916;8.990;2022-09-12T01:13:28;4.15;;;3.85;;
12768;SDS011;6448;48.916;8.990;2022-09-12T01:14:31;3.60;;;3.40;;
12768;SDS011;6448;48.916;8.990;2022-09-12T01:15:32;3.78;;;3.50;;
12768;SDS011;6448;48.916;8.990;2022-09-12T01:16:34;3.70;;;3.50;;
12768;SDS011;6448;48.916;8.990;2022-09-12T01:17:38;3.88;;;3.58;;
12768;SDS011;6448;48.916;8.990;2022-09-12T01:18:54;3.63;;;3.33;;
12768;SDS011;6448;48.916;8.990;2022-09-12T01:21:52;3.50;;;3.30;;
12768;SDS011;6448;48.916;8.990;2022-09-12T01:23:10;3.97;;;3.67;;
12768;SDS011;6448;48.916;8.990;2022-09-12T01:24:33;3.72;;;3.42;;
12768;SDS011;6448;48.916;8.990;2022-09-12T01:25:51;3.63;;;3.42;;
12768;SDS011;6448;48.916;8.990;2022-09-12T01:27:18;3.70;;;3.40;;
12768;SDS011;6448;48.916;8.990;2022-09-12T01:28:42;3.55;;;3.35;;
12768;SDS011;6448;48.916;8.990;2022-09-12T01:30:01;3.60;;;3.40;;
12768;SDS011;6448;48.916;8.990;2022-09-12T01:31:27;3.65;;;3.38;;
12768;SDS011;6448;48.916;8.990;2022-09-12T01:32:36;3.60;;;3.30;;
12768;SDS011;6448;48.916;8.990;2022-09-12T01:33:49;3.47;;;3.27;;
12768;SDS011;6448;48.916;8.990;2022-09-12T01:34:59;3.40;;;3.20;;
12768;SDS011;6448;48.916;8.990;2022-09-12T01:36:10;3.50;;;3.30;;
12768;SDS011;6448;48.916;8.990;2022-09-12T01:37:27;3.60;;;3.40;;
12768;SDS011;6448;48.916;8.990;2022-09-12T01:38:35;3.53;;;3.33;;
12768;SDS011;6448;48.916;8.990;2022-09-12T01:39:42;3.85;;;3.55;;
12768;SDS011;6448;48.916;8.990;2022-09-12T01:40:52;3.40;;;3.20;;
12768;SDS011;6448;48.916;8.990;2022-09-12T01:42:03;3.42;;;3.22;;
12768;SDS011;6448;48.916;8.990;2022-09-12T01:43:14;3.90;;;3.60;;
12768;SDS011;6448;48.916;8.990;2022-09-12T01:44:23;3.40;;;3.10;;
12768;SDS011;6448;48.916;8.990;2022-09-12T01:45:31;3.40;;;3.20;;
12768;SDS011;6448;48.916;8.990;2022-09-12T01:46:40;3.42;;;3.22;;
12768;SDS011;6448;48.916;8.990;2022-09-12T01:47:44;3.90;;;3.60;;
12768;SDS011;6448;48.916;8.990;2022-09-12T01:48:52;3.83;;;3.53;;
12768;SDS011;6448;48.916;8.990;2022-09-12T01:49:58;3.50;;;3.30;;
12768;SDS011;6448;48.916;8.990;2022-09-12T01:51:03;3.83;;;3.53;;
12768;SDS011;6448;48.916;8.990;2022-09-12T01:52:11;3.72;;;3.42;;
12768;SDS011;6448;48.916;8.990;2022-09-12T01:53:19;3.90;;;3.60;;
12768;SDS011;6448;48.916;8.990;2022-09-12T01:54:24;3.67;;;3.40;;
12768;SDS011;6448;48.916;8.990;2022-09-12T01:55:32;3.95;;;3.65;;
12768;SDS011;6448;48.916;8.990;2022-09-12T01:56:37;4.00;;;3.70;;
12768;SDS011;6448;48.916;8.990;2022-09-12T01:57:42;3.85;;;3.55;;
12768;SDS011;6448;48.916;8.990;2022-09-12T01:58:47;4.10;;;3.80;;
12768;SDS011;6448;48.916;8.990;2022-09-12T01:59:53;3.88;;;3.60;;
12768;SDS011;6448;48.916;8.990;2022-09-12T02:00:59;4.13;;;3.83;;
12768;SDS011;6448;48.916;8.990;2022-09-12T02:02:07;4.03;;;3.72;;
12768;SDS011;6448;48.916;8.990;2022-09-12T02:03:13;4.07;;;3.78;;
12768;SDS011;6448;48.916;8.990;2022-09-12T02:04:19;4.00;;;3.70;;
12768;SDS011;6448;48.916;8.990;2022-09-12T02:05:24;4.00;;;3.80;;
12768;SDS011;6448;48.916;8.990;2022-09-12T02:06:32;4.35;;;4.05;;
12768;SDS011;6448;48.916;8.990;2022-09-12T02:07:37;4.43;;;4.13;;
12768;SDS011;6448;48.916;8.990;2022-09-12T02:08:44;4.45;;;4.15;;
12768;SDS011;6448;48.916;8.990;2022-09-12T02:09:50;4.25;;;3.95;;
12768;SDS011;6448;48.916;8.990;2022-09-12T02:10:58;4.30;;;4.00;;
12768;SDS011;6448;48.916;8.990;2022-09-12T02:12:01;4.10;;;3.80;;
12768;SDS011;6448;48.916;8.990;2022-09-12T02:13:08;4.15;;;3.75;;
12768;SDS011;6448;48.916;8.990;2022-09-12T02:14:14;3.78;;;3.58;;
12768;SDS011;6448;48.916;8.990;2022-09-12T02:15:22;3.83;;;3.63;;
12768;SDS011;6448;48.916;8.990;2022-09-12T02:16:28;4.10;;;3.80;;
12768;SDS011;6448;48.916;8.990;2022-09-12T02:17:36;3.70;;;3.50;;
12768;SDS011;6448;48.916;8.990;2022-09-12T02:18:43;4.20;;;3.95;;
12768;SDS011;6448;48.916;8.990;2022-09-12T02:19:48;3.95;;;3.65;;
12768;SDS011;6448;48.916;8.990;2022-09-12T02:20:53;3.97;;;3.58;;
12768;SDS011;6448;48.916;8.990;2022-09-12T02:21:58;3.75;;;3.45;;
12768;SDS011;6448;48.916;8.990;2022-09-12T02:23:00;3.58;;;3.35;;
12768;SDS011;6448;48.916;8.990;2022-09-12T02:24:07;3.90;;;3.60;;
12768;SDS011;6448;48.916;8.990;2022-09-12T02:25:09;3.40;;;3.20;;
12768;SDS011;6448;48.916;8.990;2022-09-12T02:26:14;3.47;;;3.28;;
12768;SDS011;6448;48.916;8.990;2022-09-12T02:27:21;4.03;;;3.80;;
12768;SDS011;6448;48.916;8.990;2022-09-12T02:28:26;3.92;;;3.63;;
12768;SDS011;6448;48.916;8.990;2022-09-12T02:29:30;4.10;;;3.80;;
12768;SDS011;6448;48.916;8.990;2022-09-12T02:30:34;3.90;;;3.60;;
12768;SDS011;6448;48.916;8.990;2022-09-12T02:31:41;4.75;;;4.45;;
12768;SDS011;6448;48.916;8.990;2022-09-12T02:32:51;5.15;;;4.75;;
12768;SDS011;6448;48.916;8.990;2022-09-12T02:34:06;5.18;;;4.78;;
12768;SDS011;6448;48.916;8.990;2022-09-12T02:35:15;5.32;;;4.88;;
12768;SDS011;6448;48.916;8.990;2022-09-12T02:36:27;4.90;;;4.57;;
12768;SDS011;6448;48.916;8.990;2022-09-12T02:37:39;4.70;;;4.30;;
12768;SDS011;6448;48.916;8.990;2022-09-12T02:38:46;4.70;;;4.32;;
12768;SDS011;6448;48.916;8.990;2022-09-12T02:39:49;4.78;;;4.40;;
12768;SDS011;6448;48.916;8.990;2022-09-12T02:40:50;4.80;;;4.40;;
12768;SDS011;6448;48.916;8.990;2022-09-12T02:41:52;4.70;;;4.40;;
12768;SDS011;6448;48.916;8.990;2022-09-12T02:42:55;4.93;;;4.53;;
12768;SDS011;6448;48.916;8.990;2022-09-12T02:43:57;4.90;;;4.60;;
12768;SDS011;6448;48.916;8.990;2022-09-12T02:44:58;4.45;;;4.13;;
12768;SDS011;6448;48.916;8.990;2022-09-12T02:46:00;4.95;;;4.55;;
12768;SDS011;6448;48.916;8.990;2022-09-12T02:47:02;5.00;;;4.70;;
12768;SDS011;6448;48.916;8.990;2022-09-12T02:48:10;4.83;;;4.53;;
12768;SDS011;6448;48.916;8.990;2022-09-12T02:49:14;5.20;;;4.80;;
12768;SDS011;6448;48.916;8.990;2022-09-12T02:50:17;5.20;;;4.70;;
12768;SDS011;6448;48.916;8.990;2022-09-12T02:51:18;5.30;;;4.90;;
12768;SDS011;6448;48.916;8.990;2022-09-12T02:52:21;5.18;;;4.78;;
12768;SDS011;6448;48.916;8.990;2022-09-12T02:53:22;4.72;;;4.43;;
12768;SDS011;6448;48.916;8.990;2022-09-12T02:54:25;4.35;;;4.05;;
12768;SDS011;6448;48.916;8.990;2022-09-12T02:55:27;4.22;;;3.92;;
12768;SDS011;6448;48.916;8.990;2022-09-12T02:56:30;4.22;;;3.92;;
12768;SDS011;6448;48.916;8.990;2022-09-12T02:57:30;4.50;;;4.20;;
12768;SDS011;6448;48.916;8.990;2022-09-12T02:58:32;3.95;;;3.75;;
12768;SDS011;6448;48.916;8.990;2022-09-12T02:59:33;4.00;;;3.80;;
12768;SDS011;6448;48.916;8.990;2022-09-12T03:00:36;4.13;;;3.83;;
12768;SDS011;6448;48.916;8.990;2022-09-12T03:01:48;4.10;;;3.80;;
12768;SDS011;6448;48.916;8.990;2022-09-12T03:03:07;4.00;;;3.80;;
12768;SDS011;6448;48.916;8.990;2022-09-12T03:04:27;4.20;;;3.97;;
12768;SDS011;6448;48.916;8.990;2022-09-12T03:05:50;3.65;;;3.45;;
12768;SDS011;6448;48.916;8.990;2022-09-12T03:06:57;4.03;;;3.72;;
12768;SDS011;6448;48.916;8.990;2022-09-12T03:08:11;4.00;;;3.70;;
12768;SDS011;6448;48.916;8.990;2022-09-12T03:09:22;4.30;;;4.00;;
12768;SDS011;6448;48.916;8.990;2022-09-12T03:10:36;4.80;;;4.50;;
12768;SDS011;6448;48.916;8.990;2022-09-12T03:11:53;4.60;;;4.30;;
12768;SDS011;6448;48.916;8.990;2022-09-12T03:13:13;4.27;;;3.97;;
12768;SDS011;6448;48.916;8.990;2022-09-12T03:14:21;4.40;;;4.10;;
12768;SDS011;6448;48.916;8.990;2022-09-12T03:15:39;4.45;;;4.07;;
12768;SDS011;6448;48.916;8.990;2022-09-12T03:16:46;4.38;;;3.97;;
12768;SDS011;6448;48.916;8.990;2022-09-12T03:18:01;4.07;;;3.78;;
12768;SDS011;6448;48.916;8.990;2022-09-12T03:19:12;3.88;;;3.58;;
12768;SDS011;6448;48.916;8.990;2022-09-12T03:20:28;4.15;;;3.85;;
12768;SDS011;6448;48.916;8.990;2022-09-12T03:21:39;3.90;;;3.60;;
12768;SDS011;6448;48.916;8.990;2022-09-12T03:22:51;3.90;;;3.60;;
12768;SDS011;6448;48.916;8.990;2022-09-12T03:23:59;3.90;;;3.63;;
12768;SDS011;6448;48.916;8.990;2022-09-12T03:25:11;4.07;;;3.78;;
12768;SDS011;6448;48.916;8.990;2022-09-12T03:26:18;4.20;;;3.90;;
12768;SDS011;6448;48.916;8.990;2022-09-12T03:27:26;4.07;;;3.78;;
12768;SDS011;6448;48.916;8.990;2022-09-12T03:28:32;3.97;;;3.67;;
12768;SDS011;6448;48.916;8.990;2022-09-12T03:29:35;3.53;;;3.33;;
12768;SDS011;6448;48.916;8.990;2022-09-12T03:30:38;3.80;;;3.50;;
12768;SDS011;6448;48.916;8.990;2022-09-12T03:31:47;3.88;;;3.58;;
12768;SDS011;6448;48.916;8.990;2022-09-12T03:32:52;3.97;;;3.70;;
12768;SDS011;6448;48.916;8.990;2022-09-12T03:33:54;3.70;;;3.50;;
12768;SDS011;6448;48.916;8.990;2022-09-12T03:34:57;4.10;;;3.80;;
12768;SDS011;6448;48.916;8.990;2022-09-12T03:35:58;4.20;;;3.90;;
12768;SDS011;6448;48.916;8.990;2022-09-12T03:36:59;3.90;;;3.70;;
12768;SDS011;6448;48.916;8.990;2022-09-12T03:38:01;4.22;;;3.92;;
12768;SDS011;6448;48.916;8.990;2022-09-12T03:39:02;4.35;;;4.05;;
12768;SDS011;6448;48.916;8.990;2022-09-12T03:40:05;4.25;;;3.95;;
12768;SDS011;6448;48.916;8.990;2022-09-12T03:41:07;4.20;;;3.90;;
12768;SDS011;6448;48.916;8.990;2022-09-12T03:42:09;4.43;;;4.13;;
12768;SDS011;6448;48.916;8.990;2022-09-12T03:43:11;4.30;;;4.00;;
12768;SDS011;6448;48.916;8.990;2022-09-12T03:44:12;3.80;;;3.60;;
12768;SDS011;6448;48.916;8.990;2022-09-12T03:45:13;4.30;;;4.00;;
12768;SDS011;6448;48.916;8.990;2022-09-12T03:46:15;4.20;;;3.90;;
12768;SDS011;6448;48.916;8.990;2022-09-12T03:47:17;4.10;;;3.80;;
12768;SDS011;6448;48.916;8.990;2022-09-12T03:48:18;4.23;;;3.93;;
12768;SDS011;6448;48.916;8.990;2022-09-12T03:49:19;4.22;;;3.92;;
12768;SDS011;6448;48.916;8.990;2022-09-12T03:50:21;4.40;;;4.10;;
12768;SDS011;6448;48.916;8.990;2022-09-12T03:51:23;4.10;;;3.80;;
12768;SDS011;6448;48.916;8.990;2022-09-12T03:52:24;4.03;;;3.73;;
12768;SDS011;6448;48.916;8.990;2022-09-12T03:53:26;4.00;;;3.70;;
12768;SDS011;6448;48.916;8.990;2022-09-12T03:54:26;4.05;;;3.75;;
12768;SDS011;6448;48.916;8.990;2022-09-12T03:55:28;3.92;;;3.63;;
12768;SDS011;6448;48.916;8.990;2022-09-12T03:56:30;4.35;;;3.95;;
12768;SDS011;6448;48.916;8.990;2022-09-12T03:57:31;4.20;;;3.90;;
12768;SDS011;6448;48.916;8.990;2022-09-12T03:58:32;4.13;;;3.83;;
12768;SDS011;6448;48.916;8.990;2022-09-12T03:59:35;4.03;;;3.70;;
12768;SDS011;6448;48.916;8.990;2022-09-12T04:00:37;3.97;;;3.78;;
12768;SDS011;6448;48.916;8.990;2022-09-12T04:01:39;4.38;;;3.97;;
12768;SDS011;6448;48.916;8.990;2022-09-12T04:02:40;4.20;;;3.90;;
12768;SDS011;6448;48.916;8.990;2022-09-12T04:03:42;4.40;;;4.10;;
12768;SDS011;6448;48.916;8.990;2022-09-12T04:04:45;4.63;;;4.22;;
12768;SDS011;6448;48.916;8.990;2022-09-12T04:05:49;4.60;;;4.03;;
12768;SDS011;6448;48.916;8.990;2022-09-12T04:06:50;4.15;;;3.85;;
12768;SDS011;6448;48.916;8.990;2022-09-12T04:07:51;4.22;;;3.92;;
12768;SDS011;6448;48.916;8.990;2022-09-12T04:08:52;4.10;;;3.80;;
12768;SDS011;6448;48.916;8.990;2022-09-12T04:09:55;4.28;;;3.97;;
12768;SDS011;6448;48.916;8.990;2022-09-12T04:11:00;4.07;;;3.78;;
12768;SDS011;6448;48.916;8.990;2022-09-12T04:12:03;3.97;;;3.67;;
12768;SDS011;6448;48.916;8.990;2022-09-12T04:13:04;4.07;;;3.78;;
12768;SDS011;6448;48.916;8.990;2022-09-12T04:14:06;4.10;;;3.80;;
12768;SDS011;6448;48.916;8.990;2022-09-12T04:15:07;4.00;;;3.70;;
12768;SDS011;6448;48.916;8.990;2022-09-12T04:16:10;4.25;;;3.95;;
12768;SDS011;6448;48.916;8.990;2022-09-12T04:17:11;4.10;;;3.80;;
12768;SDS011;6448;48.916;8.990;2022-09-12T04:18:13;4.30;;;4.00;;
12768;SDS011;6448;48.916;8.990;2022-09-12T04:19:14;4.33;;;4.03;;
12768;SDS011;6448;48.916;8.990;2022-09-12T04:20:16;4.30;;;4.00;;
12768;SDS011;6448;48.916;8.990;2022-09-12T04:21:19;3.95;;;3.72;;
12768;SDS011;6448;48.916;8.990;2022-09-12T04:22:21;3.97;;;3.67;;
12768;SDS011;6448;48.916;8.990;2022-09-12T04:23:22;4.10;;;3.80;;
12768;SDS011;6448;48.916;8.990;2022-09-12T04:24:24;3.60;;;3.40;;
12768;SDS011;6448;48.916;8.990;2022-09-12T04:25:25;3.90;;;3.60;;
12768;SDS011;6448;48.916;8.990;2022-09-12T04:26:27;3.65;;;3.45;;
12768;SDS011;6448;48.916;8.990;2022-09-12T04:27:28;3.80;;;3.50;;
12768;SDS011;6448;48.916;8.990;2022-09-12T04:28:31;3.80;;;3.50;;
12768;SDS011;6448;48.916;8.990;2022-09-12T04:29:32;3.80;;;3.50;;
12768;SDS011;6448;48.916;8.990;2022-09-12T04:30:34;3.80;;;3.50;;
12768;SDS011;6448;48.916;8.990;2022-09-12T04:31:35;4.00;;;3.70;;
12768;SDS011;6448;48.916;8.990;2022-09-12T04:32:37;3.80;;;3.50;;
12768;SDS011;6448;48.916;8.990;2022-09-12T04:33:38;3.80;;;3.40;;
12768;SDS011;6448;48.916;8.990;2022-09-12T04:34:40;3.42;;;3.20;;
12768;SDS011;6448;48.916;8.990;2022-09-12T04:35:40;3.35;;;3.15;;
12768;SDS011;6448;48.916;8.990;2022-09-12T04:36:43;3.67;;;3.37;;
12768;SDS011;6448;48.916;8.990;2022-09-12T04:37:44;3.58;;;3.38;;
12768;SDS011;6448;48.916;8.990;2022-09-12T04:38:46;3.65;;;3.38;;
12768;SDS011;6448;48.916;8.990;2022-09-12T04:39:48;3.67;;;3.40;;
12768;SDS011;6448;48.916;8.990;2022-09-12T04:40:50;3.67;;;3.47;;
12768;SDS011;6448;48.916;8.990;2022-09-12T04:41:51;3.80;;;3.50;;
12768;SDS011;6448;48.916;8.990;2022-09-12T04:42:53;3.90;;;3.60;;
12768;SDS011;6448;48.916;8.990;2022-09-12T04:43:55;3.60;;;3.40;;
12768;SDS011;6448;48.916;8.990;2022-09-12T04:44:58;4.00;;;3.70;;
12768;SDS011;6448;48.916;8.990;2022-09-12T04:46:03;3.90;;;3.60;;
12768;SDS011;6448;48.916;8.990;2022-09-12T04:47:05;4.15;;;3.85;;
12768;SDS011;6448;48.916;8.990;2022-09-12T04:48:06;3.97;;;3.67;;
12768;SDS011;6448;48.916;8.990;2022-09-12T04:49:08;3.60;;;3.40;;
12768;SDS011;6448;48.916;8.990;2022-09-12T04:50:10;3.80;;;3.50;;
12768;SDS011;6448;48.916;8.990;2022-09-12T04:51:16;4.00;;;3.70;;
12768;SDS011;6448;48.916;8.990;2022-09-12T04:52:21;3.50;;;3.30;;
12768;SDS011;6448;48.916;8.990;2022-09-12T04:53:23;3.55;;;3.35;;
12768;SDS011;6448;48.916;8.990;2022-09-12T04:54:24;4.20;;;3.80;;
12768;SDS011;6448;48.916;8.990;2022-09-12T04:55:26;4.30;;;4.00;;
12768;SDS011;6448;48.916;8.990;2022-09-12T04:56:27;4.85;;;4.50;;
12768;SDS011;6448;48.916;8.990;2022-09-12T04:57:29;4.68;;;4.38;;
12768;SDS011;6448;48.916;8.990;2022-09-12T04:58:30;4.65;;;4.35;;
12768;SDS011;6448;48.916;8.990;2022-09-12T04:59:33;4.60;;;4.30;;
12768;SDS011;6448;48.916;8.990;2022-09-12T05:00:34;4.05;;;3.78;;
12768;SDS011;6448;48.916;8.990;2022-09-12T05:01:35;4.17;;;3.90;;
12768;SDS011;6448;48.916;8.990;2022-09-12T05:02:37;4.38;;;4.07;;
12768;SDS011;6448;48.916;8.990;2022-09-12T05:03:38;4.45;;;4.15;;
12768;SDS011;6448;48.916;8.990;2022-09-12T05:04:42;5.07;;;4.68;;
12768;SDS011;6448;48.916;8.990;2022-09-12T05:05:43;4.70;;;4.40;;
12768;SDS011;6448;48.916;8.990;2022-09-12T05:06:44;4.82;;;4.53;;
12768;SDS011;6448;48.916;8.990;2022-09-12T05:07:47;4.90;;;4.50;;
12768;SDS011;6448;48.916;8.990;2022-09-12T05:08:49;4.75;;;4.35;;
12768;SDS011;6448;48.916;8.990;2022-09-12T05:09:51;4.38;;;4.07;;
12768;SDS011;6448;48.916;8.990;2022-09-12T05:10:54;4.47;;;4.17;;
12768;SDS011;6448;48.916;8.990;2022-09-12T05:11:55;4.87;;;4.57;;
12768;SDS011;6448;48.916;8.990;2022-09-12T05:12:56;4.78;;;4.40;;
12768;SDS011;6448;48.916;8.990;2022-09-12T05:13:57;4.67;;;4.30;;
12768;SDS011;6448;48.916;8.990;2022-09-12T05:14:59;4.18;;;3.83;;
12768;SDS011;6448;48.916;8.990;2022-09-12T05:16:00;4.10;;;3.80;;
12768;SDS011;6448;48.916;8.990;2022-09-12T05:17:03;4.28;;;3.97;;
12768;SDS011;6448;48.916;8.990;2022-09-12T05:18:05;4.10;;;3.80;;
12768;SDS011;6448;48.916;8.990;2022-09-12T05:19:06;4.10;;;3.80;;
12768;SDS011;6448;48.916;8.990;2022-09-12T05:20:10;4.22;;;3.92;;
12768;SDS011;6448;48.916;8.990;2022-09-12T05:21:12;4.18;;;3.88;;
12768;SDS011;6448;48.916;8.990;2022-09-12T05:22:15;3.90;;;3.63;;
12768;SDS011;6448;48.916;8.990;2022-09-12T05:23:17;4.00;;;3.70;;
12768;SDS011;6448;48.916;8.990;2022-09-12T05:24:19;3.95;;;3.70;;
12768;SDS011;6448;48.916;8.990;2022-09-12T05:25:20;4.07;;;3.80;;
12768;SDS011;6448;48.916;8.990;2022-09-12T05:26:22;3.92;;;3.50;;
12768;SDS011;6448;48.916;8.990;2022-09-12T05:27:23;3.60;;;3.40;;
12768;SDS011;6448;48.916;8.990;2022-09-12T05:28:27;3.80;;;3.60;;
12768;SDS011;6448;48.916;8.990;2022-09-12T05:29:30;3.97;;;3.67;;
12768;SDS011;6448;48.916;8.990;2022-09-12T05:30:33;3.90;;;3.60;;
12768;SDS011;6448;48.916;8.990;2022-09-12T05:31:33;4.10;;;3.80;;
12768;SDS011;6448;48.916;8.990;2022-09-12T05:32:36;4.40;;;4.10;;
12768;SDS011;6448;48.916;8.990;2022-09-12T05:33:37;4.20;;;3.90;;
12768;SDS011;6448;48.916;8.990;2022-09-12T05:34:40;3.90;;;3.70;;
12768;SDS011;6448;48.916;8.990;2022-09-12T05:35:41;4.13;;;3.83;;
12768;SDS011;6448;48.916;8.990;2022-09-12T05:36:50;4.18;;;3.88;;
12768;SDS011;6448;48.916;8.990;2022-09-12T05:37:51;4.40;;;4.10;;
12768;SDS011;6448;48.916;8.990;2022-09-12T05:38:54;4.18;;;3.88;;
12768;SDS011;6448;48.916;8.990;2022-09-12T05:39:55;4.35;;;4.05;;
12768;SDS011;6448;48.916;8.990;2022-09-12T05:41:02;4.30;;;4.00;;
12768;SDS011;6448;48.916;8.990;2022-09-12T05:42:05;4.50;;;4.20;;
12768;SDS011;6448;48.916;8.990;2022-09-12T05:43:07;4.55;;;4.25;;
12768;SDS011;6448;48.916;8.990;2022-09-12T05:44:09;4.77;;;4.40;;
12768;SDS011;6448;48.916;8.990;2022-09-12T05:45:13;4.53;;;4.22;;
12768;SDS011;6448;48.916;8.990;2022-09-12T05:46:14;4.60;;;4.30;;
12768;SDS011;6448;48.916;8.990;2022-09-12T05:47:17;4.65;;;4.35;;
12768;SDS011;6448;48.916;8.990;2022-09-12T05:48:18;4.53;;;4.22;;
12768;SDS011;6448;48.916;8.990;2022-09-12T05:49:20;4.50;;;4.20;;
12768;SDS011;6448;48.916;8.990;2022-09-12T05:50:21;4.53;;;4.22;;
12768;SDS011;6448;48.916;8.990;2022-09-12T05:51:23;4.28;;;3.97;;
12768;SDS011;6448;48.916;8.990;2022-09-12T05:52:25;4.20;;;3.90;;
12768;SDS011;6448;48.916;8.990;2022-09-12T05:53:27;3.85;;;3.65;;
12768;SDS011;6448;48.916;8.990;2022-09-12T05:54:30;3.88;;;3.65;;
12768;SDS011;6448;48.916;8.990;2022-09-12T05:55:33;4.00;;;3.70;;
12768;SDS011;6448;48.916;8.990;2022-09-12T05:56:36;3.80;;;3.60;;
12768;SDS011;6448;48.916;8.990;2022-09-12T05:57:38;4.35;;;3.95;;
12768;SDS011;6448;48.916;8.990;2022-09-12T05:58:43;4.20;;;3.90;;
12768;SDS011;6448;48.916;8.990;2022-09-12T05:59:46;3.83;;;3.63;;
12768;SDS011;6448;48.916;8.990;2022-09-12T06:00:47;4.22;;;3.83;;
12768;SDS011;6448;48.916;8.990;2022-09-12T06:01:49;3.88;;;3.58;;
12768;SDS011;6448;48.916;8.990;2022-09-12T06:02:51;3.78;;;3.53;;
12768;SDS011;6448;48.916;8.990;2022-09-12T06:03:53;3.67;;;3.47;;
12768;SDS011;6448;48.916;8.990;2022-09-12T06:04:55;3.47;;;3.28;;
12768;SDS011;6448;48.916;8.990;2022-09-12T06:05:59;3.60;;;3.40;;
12768;SDS011;6448;48.916;8.990;2022-09-12T06:07:03;3.70;;;3.50;;
12768;SDS011;6448;48.916;8.990;2022-09-12T06:08:04;3.60;;;3.30;;
12768;SDS011;6448;48.916;8.990;2022-09-12T06:09:06;3.45;;;3.25;;
12768;SDS011;6448;48.916;8.990;2022-09-12T06:10:09;3.70;;;3.40;;
12768;SDS011;6448;48.916;8.990;2022-09-12T06:11:12;3.30;;;3.10;;
12768;SDS011;6448;48.916;8.990;2022-09-12T06:12:14;3.80;;;3.60;;
12768;SDS011;6448;48.916;8.990;2022-09-12T06:13:15;3.72;;;3.45;;
12768;SDS011;6448;48.916;8.990;2022-09-12T06:14:17;3.40;;;3.20;;
12768;SDS011;6448;48.916;8.990;2022-09-12T06:15:19;3.65;;;3.42;;
12768;SDS011;6448;48.916;8.990;2022-09-12T06:16:20;3.65;;;3.45;;
12768;SDS011;6448;48.916;8.990;2022-09-12T06:17:23;4.20;;;3.90;;
12768;SDS011;6448;48.916;8.990;2022-09-12T06:18:25;3.90;;;3.60;;
12768;SDS011;6448;48.916;8.990;2022-09-12T06:19:26;4.15;;;3.85;;
12768;SDS011;6448;48.916;8.990;2022-09-12T06:20:28;3.80;;;3.50;;
12768;SDS011;6448;48.916;8.990;2022-09-12T06:21:29;3.67;;;3.47;;
12768;SDS011;6448;48.916;8.990;2022-09-12T06:22:31;3.75;;;3.47;;
12768;SDS011;6448;48.916;8.990;2022-09-12T06:23:32;3.90;;;3.60;;
12768;SDS011;6448;48.916;8.990;2022-09-12T06:24:34;4.00;;;3.78;;
12768;SDS011;6448;48.916;8.990;2022-09-12T06:25:36;3.90;;;3.60;;
12768;SDS011;6448;48.916;8.990;2022-09-12T06:26:38;4.20;;;3.90;;
12768;SDS011;6448;48.916;8.990;2022-09-12T06:27:40;4.10;;;3.80;;
12768;SDS011;6448;48.916;8.990;2022-09-12T06:28:42;4.20;;;3.90;;
12768;SDS011;6448;48.916;8.990;2022-09-12T06:29:43;3.90;;;3.67;;
12768;SDS011;6448;48.916;8.990;2022-09-12T06:30:46;4.00;;;3.70;;
12768;SDS011;6448;48.916;8.990;2022-09-12T06:31:47;4.03;;;3.72;;
12768;SDS011;6448;48.916;8.990;2022-09-12T06:32:49;4.20;;;3.90;;
12768;SDS011;6448;48.916;8.990;2022-09-12T06:33:50;4.10;;;3.80;;